createdAt,value
2023-01-27T00:00:29.272Z,45
2023-01-27T00:05:29.325Z,22
2023-01-27T00:10:29.517Z,22
2023-01-27T00:15:29.517Z,270
2023-01-27T00:20:29.793Z,270
2023-01-27T00:25:29.932Z,0
2023-01-27T00:30:30.288Z,0
2023-01-27T00:35:29.497Z,338
2023-01-27T00:40:29.698Z,338
2023-01-27T00:45:30.113Z,338
2023-01-27T00:50:30.188Z,338
2023-01-27T00:55:29.343Z,338
2023-01-27T01:00:29.502Z,338
2023-01-27T01:05:29.800Z,0
2023-01-27T01:10:29.835Z,0
2023-01-27T01:15:30.017Z,22
2023-01-27T01:20:30.243Z,22
2023-01-27T01:25:29.415Z,45
2023-01-27T01:30:29.554Z,45
2023-01-27T01:35:29.567Z,22
2023-01-27T01:40:29.802Z,22
2023-01-27T01:45:29.957Z,338
2023-01-27T01:50:30.170Z,338
2023-01-27T01:55:30.230Z,338
2023-01-27T02:00:29.325Z,338
2023-01-27T02:05:29.400Z,338
2023-01-27T02:10:29.885Z,338
2023-01-27T02:15:29.965Z,22
2023-01-27T02:20:30.192Z,22
2023-01-27T02:25:29.447Z,22
2023-01-27T02:30:29.786Z,22
2023-01-27T02:35:29.950Z,22
2023-01-27T02:40:30.099Z,22
2023-01-27T02:45:29.380Z,22
2023-01-27T02:50:29.485Z,22
2023-01-27T02:55:29.683Z,22
2023-01-27T03:00:29.805Z,22
2023-01-27T03:05:29.701Z,22
2023-01-27T12:15:30.533Z,22
2023-01-27T12:20:30.066Z,22
2023-01-27T12:25:30.217Z,45
2023-01-27T12:30:30.117Z,45
2023-01-27T12:35:30.291Z,68
2023-01-27T12:40:30.579Z,68
2023-01-27T12:45:29.886Z,0
2023-01-27T12:50:29.963Z,0
2023-01-27T12:55:30.089Z,68
2023-01-27T13:00:30.590Z,68
2023-01-27T13:05:29.775Z,68
2023-01-27T13:10:29.937Z,68
2023-01-27T13:15:29.937Z,45
2023-01-27T13:20:29.761Z,45
2023-01-27T13:25:29.854Z,22
2023-01-27T13:30:30.059Z,22
2023-01-27T13:35:30.220Z,22
2023-01-27T13:40:30.423Z,22
2023-01-27T13:45:30.511Z,90
2023-01-27T13:50:30.699Z,90
2023-01-27T13:55:30.133Z,112
2023-01-27T14:00:30.316Z,112
2023-01-27T14:05:30.360Z,112
2023-01-27T14:10:29.947Z,112
2023-01-27T14:15:29.997Z,45
2023-01-27T14:20:30.164Z,45
2023-01-27T14:25:30.453Z,45
2023-01-27T14:30:30.602Z,45
2023-01-27T14:35:30.674Z,22
2023-01-27T14:40:29.712Z,22
2023-01-27T14:45:29.766Z,90
2023-01-27T14:50:33.652Z,90
2023-01-27T14:55:30.380Z,45
2023-01-27T15:00:29.983Z,45
2023-01-27T15:05:29.906Z,22
2023-01-27T15:10:30.595Z,22
2023-01-27T15:15:29.710Z,338
2023-01-27T15:20:30.334Z,338
2023-01-27T15:25:30.006Z,68
2023-01-27T15:30:30.163Z,68
2023-01-27T15:35:29.775Z,22
2023-01-27T15:40:30.483Z,22
2023-01-27T15:45:30.484Z,0
2023-01-27T15:50:29.884Z,0
2023-01-27T15:55:30.618Z,22
2023-01-27T16:00:30.263Z,22
2023-01-27T16:05:30.383Z,0
2023-01-27T16:10:30.113Z,0
2023-01-27T16:15:30.258Z,45
2023-01-27T16:20:30.604Z,45
2023-01-27T16:25:29.816Z,22
2023-01-27T16:30:30.385Z,22
2023-01-27T16:35:29.837Z,338
2023-01-27T16:40:29.942Z,338
2023-01-27T16:45:30.461Z,0
2023-01-27T16:50:30.472Z,0
2023-01-27T16:55:30.695Z,0
2023-01-27T17:00:30.092Z,0
2023-01-27T17:05:30.348Z,338
2023-01-27T17:10:35.738Z,338
2023-01-27T17:15:29.947Z,22
2023-01-27T17:20:30.093Z,22
2023-01-27T17:25:30.200Z,0
2023-01-27T17:30:30.443Z,0
2023-01-27T17:35:31.509Z,68
2023-01-27T17:40:30.674Z,68
2023-01-27T17:45:30.635Z,0
2023-01-27T17:50:31.615Z,0
2023-01-27T17:55:30.664Z,90
2023-01-27T18:00:29.784Z,90
2023-01-27T18:05:30.804Z,22
2023-01-27T18:10:30.010Z,22
2023-01-27T18:15:30.152Z,22
2023-01-27T18:20:30.196Z,22
2023-01-27T18:25:30.255Z,22
2023-01-27T18:30:29.910Z,22
2023-01-27T18:35:29.979Z,0
2023-01-27T18:40:30.032Z,0
2023-01-27T18:45:30.127Z,0
2023-01-27T18:50:30.151Z,0
2023-01-27T18:55:30.214Z,0
2023-01-27T19:00:30.923Z,0
2023-01-27T19:05:29.889Z,22
2023-01-27T19:10:29.970Z,22
2023-01-27T19:15:30.367Z,315
2023-01-27T19:20:30.552Z,315
2023-01-27T19:25:30.435Z,338
2023-01-27T19:30:30.575Z,338
2023-01-27T19:35:30.684Z,338
2023-01-27T19:40:30.786Z,338
2023-01-27T19:45:30.914Z,338
2023-01-27T19:50:30.034Z,338
2023-01-27T19:55:30.119Z,338
2023-01-27T20:00:30.874Z,338
2023-01-27T20:05:30.020Z,338
2023-01-27T20:10:30.357Z,338
2023-01-27T20:15:30.413Z,338
2023-01-27T20:20:30.469Z,338
2023-01-27T20:25:30.568Z,112
2023-01-27T20:30:30.776Z,112
2023-01-27T20:35:30.817Z,90
2023-01-27T20:40:29.935Z,90
2023-01-27T20:45:30.110Z,90
2023-01-27T20:50:30.282Z,90
2023-01-27T20:55:31.709Z,90
2023-01-27T21:00:30.926Z,90
2023-01-27T21:05:29.948Z,90
2023-01-27T21:10:30.072Z,90
2023-01-27T21:15:30.222Z,135
2023-01-27T21:20:30.465Z,135
2023-01-27T21:25:30.635Z,135
2023-01-27T21:30:29.892Z,135
2023-01-27T21:35:30.208Z,112
2023-01-27T21:40:30.251Z,112
2023-01-27T21:45:30.317Z,90
2023-01-27T21:50:30.376Z,90
2023-01-27T21:55:30.465Z,90
2023-01-27T22:00:30.491Z,90
2023-01-27T22:05:29.918Z,90
2023-01-27T22:10:30.097Z,90
2023-01-27T22:15:30.160Z,90
2023-01-27T22:20:30.160Z,90
2023-01-27T22:25:30.219Z,90
2023-01-27T22:30:30.344Z,90
2023-01-27T22:35:30.378Z,90
2023-01-27T22:40:30.417Z,90
2023-01-27T22:45:30.521Z,90
2023-01-27T22:50:30.606Z,90
2023-01-27T22:55:31.023Z,22
2023-01-27T23:00:30.444Z,22
2023-01-27T23:05:30.001Z,22
2023-01-27T23:10:30.092Z,22
2023-01-27T23:15:30.154Z,22
2023-01-27T23:20:30.215Z,22
2023-01-27T23:25:30.196Z,45
2023-01-27T23:30:31.071Z,45
2023-01-27T23:35:30.113Z,68
2023-01-27T23:40:30.181Z,68
2023-01-27T23:45:30.243Z,68
2023-01-27T23:50:30.375Z,68
2023-01-27T23:55:30.427Z,22
